sensor_id;sensor_type;location;lat;lon;timestamp;pressure;altitude;pressure_sealevel;temperature;humidity
58919;BME280;44704;50.122;19.932;2022-12-29T00:00:09;98427.60;;;1.01;76.40
58919;BME280;44704;50.122;19.932;2022-12-29T00:02:58;98423.09;;;1.03;76.25
58919;BME280;44704;50.122;19.932;2022-12-29T00:05:25;98426.19;;;1.06;76.28
58919;BME280;44704;50.122;19.932;2022-12-29T00:07:51;98430.02;;;1.08;76.11
58919;BME280;44704;50.122;19.932;2022-12-29T00:10:17;98424.60;;;1.10;76.18
58919;BME280;44704;50.122;19.932;2022-12-29T00:12:43;98423.72;;;1.10;76.13
58919;BME280;44704;50.122;19.932;2022-12-29T00:15:28;98426.41;;;1.11;76.19
58919;BME280;44704;50.122;19.932;2022-12-29T00:18:04;98429.85;;;1.12;76.13
58919;BME280;44704;50.122;19.932;2022-12-29T00:20:33;98429.41;;;1.13;75.97
58919;BME280;44704;50.122;19.932;2022-12-29T00:23:18;98435.30;;;1.15;76.00
58919;BME280;44704;50.122;19.932;2022-12-29T00:26:04;98428.71;;;1.16;76.06
58919;BME280;44704;50.122;19.932;2022-12-29T00:28:53;98426.87;;;1.18;75.90
58919;BME280;44704;50.122;19.932;2022-12-29T00:31:37;98420.73;;;1.20;75.93
58919;BME280;44704;50.122;19.932;2022-12-29T00:34:22;98422.30;;;1.23;75.85
58919;BME280;44704;50.122;19.932;2022-12-29T00:37:07;98429.40;;;1.26;75.85
58919;BME280;44704;50.122;19.932;2022-12-29T00:39:33;98427.05;;;1.28;75.67
58919;BME280;44704;50.122;19.932;2022-12-29T00:42:18;98420.91;;;1.31;75.58
58919;BME280;44704;50.122;19.932;2022-12-29T00:45:04;98417.89;;;1.33;75.57
58919;BME280;44704;50.122;19.932;2022-12-29T00:47:30;98424.65;;;1.33;75.65
58919;BME280;44704;50.122;19.932;2022-12-29T00:49:56;98429.88;;;1.31;75.59
58919;BME280;44704;50.122;19.932;2022-12-29T00:52:22;98429.50;;;1.29;75.66
58919;BME280;44704;50.122;19.932;2022-12-29T00:54:48;98427.36;;;1.26;75.74
58919;BME280;44704;50.122;19.932;2022-12-29T00:57:15;98430.17;;;1.23;75.83
58919;BME280;44704;50.122;19.932;2022-12-29T00:59:42;98427.25;;;1.21;75.89
58919;BME280;44704;50.122;19.932;2022-12-29T01:02:09;98424.90;;;1.18;75.80
58919;BME280;44704;50.122;19.932;2022-12-29T01:04:36;98427.10;;;1.16;75.90
58919;BME280;44704;50.122;19.932;2022-12-29T01:07:03;98424.06;;;1.14;75.92
58919;BME280;44704;50.122;19.932;2022-12-29T01:09:29;98421.17;;;1.13;75.92
58919;BME280;44704;50.122;19.932;2022-12-29T01:12:15;98423.11;;;1.13;75.75
58919;BME280;44704;50.122;19.932;2022-12-29T01:14:42;98418.65;;;1.13;75.81
58919;BME280;44704;50.122;19.932;2022-12-29T01:17:08;98417.18;;;1.14;75.69
58919;BME280;44704;50.122;19.932;2022-12-29T01:19:34;98410.86;;;1.14;75.67
58919;BME280;44704;50.122;19.932;2022-12-29T01:22:00;98403.70;;;1.12;75.60
58919;BME280;44704;50.122;19.932;2022-12-29T01:24:27;98402.45;;;1.12;75.61
58919;BME280;44704;50.122;19.932;2022-12-29T01:26:54;98394.96;;;1.12;75.66
58919;BME280;44704;50.122;19.932;2022-12-29T01:29:21;98392.54;;;1.13;75.52
58919;BME280;44704;50.122;19.932;2022-12-29T01:31:47;98388.92;;;1.15;75.50
58919;BME280;44704;50.122;19.932;2022-12-29T01:34:15;98393.58;;;1.15;75.56
58919;BME280;44704;50.122;19.932;2022-12-29T01:36:41;98389.22;;;1.16;75.54
58919;BME280;44704;50.122;19.932;2022-12-29T01:39:07;98390.19;;;1.17;75.74
58919;BME280;44704;50.122;19.932;2022-12-29T01:41:33;98390.58;;;1.18;75.60
58919;BME280;44704;50.122;19.932;2022-12-29T01:44:01;98391.40;;;1.18;75.62
58919;BME280;44704;50.122;19.932;2022-12-29T01:46:42;98394.91;;;1.19;75.53
58919;BME280;44704;50.122;19.932;2022-12-29T01:49:18;98395.48;;;1.19;75.54
58919;BME280;44704;50.122;19.932;2022-12-29T01:51:52;98392.48;;;1.18;75.65
58919;BME280;44704;50.122;19.932;2022-12-29T01:54:46;98392.08;;;1.17;75.75
58919;BME280;44704;50.122;19.932;2022-12-29T01:57:18;98389.84;;;1.17;75.95
58919;BME280;44704;50.122;19.932;2022-12-29T01:59:51;98395.36;;;1.15;75.98
58919;BME280;44704;50.122;19.932;2022-12-29T02:02:19;98390.52;;;1.15;75.87
58919;BME280;44704;50.122;19.932;2022-12-29T02:04:45;98384.26;;;1.15;75.69
58919;BME280;44704;50.122;19.932;2022-12-29T02:07:16;98380.43;;;1.16;75.89
58919;BME280;44704;50.122;19.932;2022-12-29T02:09:47;98378.69;;;1.17;76.00
58919;BME280;44704;50.122;19.932;2022-12-29T02:12:16;98378.23;;;1.16;76.02
58919;BME280;44704;50.122;19.932;2022-12-29T02:14:44;98376.37;;;1.17;75.91
58919;BME280;44704;50.122;19.932;2022-12-29T02:23:15;98379.38;;;1.23;75.57
58919;BME280;44704;50.122;19.932;2022-12-29T02:29:02;98380.95;;;1.28;75.38
58919;BME280;44704;50.122;19.932;2022-12-29T02:37:26;98360.49;;;1.31;75.41
58919;BME280;44704;50.122;19.932;2022-12-29T02:40:24;98346.77;;;1.31;75.37
58919;BME280;44704;50.122;19.932;2022-12-29T02:43:24;98338.35;;;1.31;75.42
58919;BME280;44704;50.122;19.932;2022-12-29T02:45:53;98330.18;;;1.30;75.54
58919;BME280;44704;50.122;19.932;2022-12-29T02:48:43;98329.60;;;1.29;75.71
58919;BME280;44704;50.122;19.932;2022-12-29T02:51:16;98330.44;;;1.31;75.60
58919;BME280;44704;50.122;19.932;2022-12-29T02:53:45;98321.20;;;1.32;75.52
58919;BME280;44704;50.122;19.932;2022-12-29T02:56:31;98322.09;;;1.34;75.59
58919;BME280;44704;50.122;19.932;2022-12-29T02:58:57;98322.32;;;1.35;75.31
58919;BME280;44704;50.122;19.932;2022-12-29T03:10:17;98322.02;;;1.42;74.71
58919;BME280;44704;50.122;19.932;2022-12-29T03:13:01;98319.52;;;1.42;74.74
58919;BME280;44704;50.122;19.932;2022-12-29T03:16:04;98316.73;;;1.42;74.64
58919;BME280;44704;50.122;19.932;2022-12-29T03:21:07;98315.14;;;1.43;74.15
58919;BME280;44704;50.122;19.932;2022-12-29T03:23:36;98322.06;;;1.43;74.32
58919;BME280;44704;50.122;19.932;2022-12-29T03:26:06;98315.30;;;1.42;74.28
58919;BME280;44704;50.122;19.932;2022-12-29T03:28:53;98315.83;;;1.43;74.18
58919;BME280;44704;50.122;19.932;2022-12-29T03:31:25;98325.89;;;1.41;74.14
58919;BME280;44704;50.122;19.932;2022-12-29T03:33:53;98323.80;;;1.39;74.09
58919;BME280;44704;50.122;19.932;2022-12-29T03:36:32;98321.15;;;1.38;74.12
58919;BME280;44704;50.122;19.932;2022-12-29T03:39:12;98319.64;;;1.36;74.19
58919;BME280;44704;50.122;19.932;2022-12-29T03:41:43;98320.79;;;1.36;74.25
58919;BME280;44704;50.122;19.932;2022-12-29T03:44:12;98315.98;;;1.34;74.35
58919;BME280;44704;50.122;19.932;2022-12-29T03:46:39;98314.13;;;1.33;74.44
58919;BME280;44704;50.122;19.932;2022-12-29T03:49:05;98308.57;;;1.32;74.41
58919;BME280;44704;50.122;19.932;2022-12-29T03:51:31;98312.04;;;1.31;74.42
58919;BME280;44704;50.122;19.932;2022-12-29T03:53:58;98318.14;;;1.31;74.09
58919;BME280;44704;50.122;19.932;2022-12-29T03:56:24;98319.08;;;1.30;74.12
58919;BME280;44704;50.122;19.932;2022-12-29T03:58:52;98319.85;;;1.31;73.78
58919;BME280;44704;50.122;19.932;2022-12-29T04:01:24;98326.30;;;1.35;73.64
58919;BME280;44704;50.122;19.932;2022-12-29T04:03:50;98320.77;;;1.38;73.48
58919;BME280;44704;50.122;19.932;2022-12-29T04:06:16;98316.39;;;1.41;73.36
58919;BME280;44704;50.122;19.932;2022-12-29T04:08:48;98308.02;;;1.42;73.49
58919;BME280;44704;50.122;19.932;2022-12-29T04:11:14;98318.47;;;1.44;73.36
58919;BME280;44704;50.122;19.932;2022-12-29T04:13:41;98324.29;;;1.47;73.39
58919;BME280;44704;50.122;19.932;2022-12-29T04:16:09;98330.58;;;1.48;73.53
58919;BME280;44704;50.122;19.932;2022-12-29T04:18:36;98329.63;;;1.48;73.40
58919;BME280;44704;50.122;19.932;2022-12-29T04:21:03;98327.64;;;1.50;73.26
58919;BME280;44704;50.122;19.932;2022-12-29T04:23:35;98323.27;;;1.50;73.08
58919;BME280;44704;50.122;19.932;2022-12-29T04:26:04;98314.96;;;1.51;73.12
58919;BME280;44704;50.122;19.932;2022-12-29T04:28:33;98312.61;;;1.51;73.11
58919;BME280;44704;50.122;19.932;2022-12-29T04:31:18;98307.17;;;1.52;73.07
58919;BME280;44704;50.122;19.932;2022-12-29T04:33:45;98300.80;;;1.51;72.93
58919;BME280;44704;50.122;19.932;2022-12-29T04:36:12;98302.27;;;1.51;72.85
58919;BME280;44704;50.122;19.932;2022-12-29T04:38:38;98288.17;;;1.50;72.90
58919;BME280;44704;50.122;19.932;2022-12-29T04:41:05;98295.04;;;1.51;72.82
58919;BME280;44704;50.122;19.932;2022-12-29T04:43:32;98289.94;;;1.50;72.69
58919;BME280;44704;50.122;19.932;2022-12-29T04:46:13;98284.45;;;1.49;72.87
58919;BME280;44704;50.122;19.932;2022-12-29T04:49:00;98282.61;;;1.48;72.78
58919;BME280;44704;50.122;19.932;2022-12-29T04:51:53;98278.02;;;1.47;72.84
58919;BME280;44704;50.122;19.932;2022-12-29T04:54:19;98281.83;;;1.47;72.88
58919;BME280;44704;50.122;19.932;2022-12-29T04:56:53;98277.52;;;1.46;72.86
58919;BME280;44704;50.122;19.932;2022-12-29T04:59:20;98276.73;;;1.45;72.96
58919;BME280;44704;50.122;19.932;2022-12-29T05:01:48;98279.15;;;1.44;72.82
58919;BME280;44704;50.122;19.932;2022-12-29T05:04:15;98276.98;;;1.43;72.81
58919;BME280;44704;50.122;19.932;2022-12-29T05:06:42;98285.04;;;1.43;72.86
58919;BME280;44704;50.122;19.932;2022-12-29T05:09:09;98285.08;;;1.43;73.04
58919;BME280;44704;50.122;19.932;2022-12-29T05:11:35;98284.90;;;1.40;73.03
58919;BME280;44704;50.122;19.932;2022-12-29T05:14:02;98278.46;;;1.34;73.49
58919;BME280;44704;50.122;19.932;2022-12-29T05:16:29;98277.10;;;1.29;73.69
58919;BME280;44704;50.122;19.932;2022-12-29T05:18:55;98275.55;;;1.26;73.83
58919;BME280;44704;50.122;19.932;2022-12-29T05:21:21;98274.13;;;1.25;73.92
58919;BME280;44704;50.122;19.932;2022-12-29T05:23:48;98267.21;;;1.26;73.80
58919;BME280;44704;50.122;19.932;2022-12-29T05:26:15;98275.26;;;1.29;73.83
58919;BME280;44704;50.122;19.932;2022-12-29T05:28:56;98269.91;;;1.32;73.66
58919;BME280;44704;50.122;19.932;2022-12-29T05:31:22;98271.59;;;1.36;73.51
58919;BME280;44704;50.122;19.932;2022-12-29T05:33:49;98279.66;;;1.39;73.50
58919;BME280;44704;50.122;19.932;2022-12-29T05:36:15;98282.85;;;1.42;73.51
58919;BME280;44704;50.122;19.932;2022-12-29T05:38:45;98278.92;;;1.45;73.31
58919;BME280;44704;50.122;19.932;2022-12-29T05:41:12;98271.50;;;1.47;73.32
58919;BME280;44704;50.122;19.932;2022-12-29T05:43:41;98266.58;;;1.49;73.15
58919;BME280;44704;50.122;19.932;2022-12-29T05:46:26;98270.31;;;1.52;73.09
58919;BME280;44704;50.122;19.932;2022-12-29T05:49:08;98277.85;;;1.55;72.97
58919;BME280;44704;50.122;19.932;2022-12-29T05:55:06;98281.70;;;1.54;73.01
58919;BME280;44704;50.122;19.932;2022-12-29T05:57:34;98277.15;;;1.55;72.82
58919;BME280;44704;50.122;19.932;2022-12-29T06:00:07;98278.27;;;1.54;73.07
58919;BME280;44704;50.122;19.932;2022-12-29T06:02:40;98272.98;;;1.55;73.05
58919;BME280;44704;50.122;19.932;2022-12-29T06:05:08;98270.38;;;1.54;73.01
58919;BME280;44704;50.122;19.932;2022-12-29T06:07:36;98262.92;;;1.55;73.05
58919;BME280;44704;50.122;19.932;2022-12-29T06:10:04;98259.48;;;1.56;73.11
58919;BME280;44704;50.122;19.932;2022-12-29T06:12:35;98262.23;;;1.58;73.10
58919;BME280;44704;50.122;19.932;2022-12-29T06:15:01;98260.31;;;1.59;73.02
58919;BME280;44704;50.122;19.932;2022-12-29T06:17:28;98260.98;;;1.61;73.01
58919;BME280;44704;50.122;19.932;2022-12-29T06:19:54;98262.19;;;1.61;72.97
58919;BME280;44704;50.122;19.932;2022-12-29T06:22:21;98269.05;;;1.62;72.89
58919;BME280;44704;50.122;19.932;2022-12-29T06:24:47;98267.75;;;1.64;72.95
58919;BME280;44704;50.122;19.932;2022-12-29T06:27:13;98266.02;;;1.65;73.06
58919;BME280;44704;50.122;19.932;2022-12-29T06:29:40;98263.25;;;1.65;72.98
58919;BME280;44704;50.122;19.932;2022-12-29T06:32:08;98260.06;;;1.67;73.07
58919;BME280;44704;50.122;19.932;2022-12-29T06:34:35;98259.33;;;1.68;72.95
58919;BME280;44704;50.122;19.932;2022-12-29T06:37:02;98259.80;;;1.70;72.81
58919;BME280;44704;50.122;19.932;2022-12-29T06:39:28;98261.70;;;1.72;72.95
58919;BME280;44704;50.122;19.932;2022-12-29T06:42:03;98265.11;;;1.74;72.89
58919;BME280;44704;50.122;19.932;2022-12-29T06:44:58;98268.05;;;1.75;72.85
58919;BME280;44704;50.122;19.932;2022-12-29T06:47:26;98265.16;;;1.75;72.95
58919;BME280;44704;50.122;19.932;2022-12-29T06:49:53;98259.30;;;1.76;72.91
58919;BME280;44704;50.122;19.932;2022-12-29T06:52:19;98250.77;;;1.78;72.84
58919;BME280;44704;50.122;19.932;2022-12-29T06:54:45;98241.76;;;1.80;72.76
58919;BME280;44704;50.122;19.932;2022-12-29T06:57:11;98244.07;;;1.81;72.90
58919;BME280;44704;50.122;19.932;2022-12-29T06:59:37;98248.16;;;1.83;72.76
58919;BME280;44704;50.122;19.932;2022-12-29T07:02:05;98249.27;;;1.83;72.92
58919;BME280;44704;50.122;19.932;2022-12-29T07:04:31;98257.18;;;1.84;72.94
58919;BME280;44704;50.122;19.932;2022-12-29T07:06:58;98257.95;;;1.84;72.91
58919;BME280;44704;50.122;19.932;2022-12-29T07:09:24;98253.05;;;1.84;72.88
58919;BME280;44704;50.122;19.932;2022-12-29T07:11:50;98253.77;;;1.86;72.86
58919;BME280;44704;50.122;19.932;2022-12-29T07:14:16;98257.95;;;1.88;72.84
58919;BME280;44704;50.122;19.932;2022-12-29T07:16:43;98266.11;;;1.90;72.94
58919;BME280;44704;50.122;19.932;2022-12-29T07:19:09;98271.70;;;1.97;73.88
58919;BME280;44704;50.122;19.932;2022-12-29T07:21:36;98278.06;;;2.03;73.35
58919;BME280;44704;50.122;19.932;2022-12-29T07:24:02;98280.16;;;2.06;72.98
58919;BME280;44704;50.122;19.932;2022-12-29T07:26:28;98275.42;;;2.08;72.91
58919;BME280;44704;50.122;19.932;2022-12-29T07:28:54;98273.09;;;2.13;73.79
58919;BME280;44704;50.122;19.932;2022-12-29T07:31:22;98271.96;;;2.20;73.25
58919;BME280;44704;50.122;19.932;2022-12-29T07:33:49;98266.78;;;2.24;72.68
58919;BME280;44704;50.122;19.932;2022-12-29T07:36:16;98260.35;;;2.28;72.36
58919;BME280;44704;50.122;19.932;2022-12-29T07:38:42;98251.98;;;2.31;72.33
58919;BME280;44704;50.122;19.932;2022-12-29T07:41:09;98249.72;;;2.33;72.17
58919;BME280;44704;50.122;19.932;2022-12-29T07:43:35;98250.64;;;2.34;72.29
58919;BME280;44704;50.122;19.932;2022-12-29T07:46:24;98243.15;;;2.34;72.13
58919;BME280;44704;50.122;19.932;2022-12-29T07:48:51;98243.17;;;2.35;72.05
58919;BME280;44704;50.122;19.932;2022-12-29T07:51:17;98237.55;;;2.37;72.41
58919;BME280;44704;50.122;19.932;2022-12-29T07:53:43;98236.81;;;2.39;72.24
58919;BME280;44704;50.122;19.932;2022-12-29T07:56:09;98240.09;;;2.39;72.23
58919;BME280;44704;50.122;19.932;2022-12-29T07:58:36;98237.08;;;2.42;72.18
58919;BME280;44704;50.122;19.932;2022-12-29T08:01:02;98239.29;;;2.43;72.08
58919;BME280;44704;50.122;19.932;2022-12-29T08:03:28;98241.33;;;2.45;71.98
58919;BME280;44704;50.122;19.932;2022-12-29T08:05:56;98243.83;;;2.48;71.71
58919;BME280;44704;50.122;19.932;2022-12-29T08:08:22;98241.94;;;2.52;71.57
58919;BME280;44704;50.122;19.932;2022-12-29T08:10:49;98245.89;;;2.56;71.42
58919;BME280;44704;50.122;19.932;2022-12-29T08:13:15;98242.97;;;2.59;71.29
58919;BME280;44704;50.122;19.932;2022-12-29T08:15:41;98238.52;;;2.63;71.36
58919;BME280;44704;50.122;19.932;2022-12-29T08:18:07;98239.44;;;2.67;71.14
58919;BME280;44704;50.122;19.932;2022-12-29T08:20:33;98237.91;;;2.72;71.16
58919;BME280;44704;50.122;19.932;2022-12-29T08:23:00;98235.31;;;2.76;71.06
58919;BME280;44704;50.122;19.932;2022-12-29T08:25:26;98242.98;;;2.80;70.95
58919;BME280;44704;50.122;19.932;2022-12-29T08:27:52;98251.33;;;2.76;71.00
58919;BME280;44704;50.122;19.932;2022-12-29T08:30:18;98259.02;;;2.68;71.17
58919;BME280;44704;50.122;19.932;2022-12-29T08:32:45;98260.48;;;2.64;71.38
58919;BME280;44704;50.122;19.932;2022-12-29T08:35:11;98266.27;;;2.65;71.58
58919;BME280;44704;50.122;19.932;2022-12-29T08:37:38;98264.53;;;2.70;71.20
58919;BME280;44704;50.122;19.932;2022-12-29T08:40:05;98262.13;;;2.76;71.33
58919;BME280;44704;50.122;19.932;2022-12-29T08:42:32;98257.30;;;2.84;71.17
58919;BME280;44704;50.122;19.932;2022-12-29T08:44:58;98255.93;;;2.92;71.05
58919;BME280;44704;50.122;19.932;2022-12-29T08:47:25;98251.13;;;2.98;70.59
58919;BME280;44704;50.122;19.932;2022-12-29T08:49:51;98252.27;;;3.06;70.34
58919;BME280;44704;50.122;19.932;2022-12-29T08:52:18;98256.06;;;3.13;70.02
58919;BME280;44704;50.122;19.932;2022-12-29T08:54:44;98259.27;;;3.21;70.04
58919;BME280;44704;50.122;19.932;2022-12-29T08:57:11;98255.52;;;3.28;69.87
58919;BME280;44704;50.122;19.932;2022-12-29T08:59:47;98250.77;;;3.36;70.02
58919;BME280;44704;50.122;19.932;2022-12-29T09:02:14;98241.76;;;3.43;69.78
58919;BME280;44704;50.122;19.932;2022-12-29T09:04:40;98238.09;;;3.51;69.91
58919;BME280;44704;50.122;19.932;2022-12-29T09:07:06;98241.16;;;3.57;69.80
58919;BME280;44704;50.122;19.932;2022-12-29T09:09:33;98248.05;;;3.65;69.51
58919;BME280;44704;50.122;19.932;2022-12-29T09:11:59;98242.50;;;3.73;69.46
58919;BME280;44704;50.122;19.932;2022-12-29T09:14:25;98237.45;;;3.80;69.25
58919;BME280;44704;50.122;19.932;2022-12-29T09:16:52;98233.84;;;3.87;69.27
58919;BME280;44704;50.122;19.932;2022-12-29T09:19:37;98227.50;;;3.94;69.13
58919;BME280;44704;50.122;19.932;2022-12-29T09:22:03;98217.81;;;4.00;68.97
58919;BME280;44704;50.122;19.932;2022-12-29T09:24:29;98212.02;;;4.09;69.21
58919;BME280;44704;50.122;19.932;2022-12-29T09:26:56;98213.46;;;4.16;69.09
58919;BME280;44704;50.122;19.932;2022-12-29T09:29:23;98217.02;;;4.25;68.52
58919;BME280;44704;50.122;19.932;2022-12-29T09:31:49;98217.55;;;4.34;68.31
58919;BME280;44704;50.122;19.932;2022-12-29T09:34:16;98212.55;;;4.43;68.06
58919;BME280;44704;50.122;19.932;2022-12-29T09:36:42;98212.30;;;4.52;68.00
58919;BME280;44704;50.122;19.932;2022-12-29T09:39:08;98215.60;;;4.61;67.72
58919;BME280;44704;50.122;19.932;2022-12-29T09:41:49;98205.93;;;4.70;67.53
58919;BME280;44704;50.122;19.932;2022-12-29T09:46:49;98212.99;;;4.90;67.21
58919;BME280;44704;50.122;19.932;2022-12-29T09:49:41;98213.63;;;4.99;67.09
58919;BME280;44704;50.122;19.932;2022-12-29T09:52:21;98222.41;;;5.10;66.99
58919;BME280;44704;50.122;19.932;2022-12-29T10:03:52;98218.54;;;5.60;66.06
58919;BME280;44704;50.122;19.932;2022-12-29T10:06:44;98218.96;;;5.69;66.10
58919;BME280;44704;50.122;19.932;2022-12-29T10:09:22;98209.08;;;5.81;66.09
58919;BME280;44704;50.122;19.932;2022-12-29T10:17:44;98202.09;;;6.11;64.53
58919;BME280;44704;50.122;19.932;2022-12-29T10:25:22;98183.83;;;6.41;64.50
58919;BME280;44704;50.122;19.932;2022-12-29T10:27:53;98189.42;;;6.51;63.90
58919;BME280;44704;50.122;19.932;2022-12-29T10:30:22;98194.94;;;6.60;63.54
58919;BME280;44704;50.122;19.932;2022-12-29T10:32:52;98192.80;;;6.68;63.39
58919;BME280;44704;50.122;19.932;2022-12-29T10:35:28;98188.68;;;6.78;63.33
58919;BME280;44704;50.122;19.932;2022-12-29T10:38:05;98185.52;;;6.88;63.12
58919;BME280;44704;50.122;19.932;2022-12-29T10:40:55;98180.15;;;6.98;63.12
58919;BME280;44704;50.122;19.932;2022-12-29T10:45:59;98176.52;;;7.22;63.27
58919;BME280;44704;50.122;19.932;2022-12-29T10:48:32;98172.41;;;7.30;63.34
58919;BME280;44704;50.122;19.932;2022-12-29T10:51:01;98167.79;;;7.38;63.38
58919;BME280;44704;50.122;19.932;2022-12-29T10:53:43;98166.79;;;7.46;63.71
58919;BME280;44704;50.122;19.932;2022-12-29T10:56:26;98162.99;;;7.55;63.19
58919;BME280;44704;50.122;19.932;2022-12-29T10:58:55;98156.77;;;7.63;63.22
58919;BME280;44704;50.122;19.932;2022-12-29T11:01:31;98152.42;;;7.72;63.03
58919;BME280;44704;50.122;19.932;2022-12-29T11:06:49;98154.50;;;7.89;63.33
58919;BME280;44704;50.122;19.932;2022-12-29T11:09:24;98155.90;;;7.97;62.85
58919;BME280;44704;50.122;19.932;2022-12-29T11:11:52;98155.99;;;8.07;62.99
58919;BME280;44704;50.122;19.932;2022-12-29T11:14:21;98150.83;;;8.13;62.98
58919;BME280;44704;50.122;19.932;2022-12-29T11:17:00;98149.78;;;8.20;62.69
58919;BME280;44704;50.122;19.932;2022-12-29T11:19:29;98143.41;;;8.24;62.46
58919;BME280;44704;50.122;19.932;2022-12-29T11:24:44;98145.98;;;8.29;62.37
58919;BME280;44704;50.122;19.932;2022-12-29T11:27:18;98148.23;;;8.28;62.35
58919;BME280;44704;50.122;19.932;2022-12-29T11:29:46;98144.13;;;8.29;62.60
58919;BME280;44704;50.122;19.932;2022-12-29T11:32:19;98138.34;;;8.33;62.51
58919;BME280;44704;50.122;19.932;2022-12-29T11:34:46;98136.69;;;8.39;62.36
58919;BME280;44704;50.122;19.932;2022-12-29T11:37:29;98136.09;;;8.43;62.09
58919;BME280;44704;50.122;19.932;2022-12-29T11:40:01;98134.11;;;8.47;62.05
58919;BME280;44704;50.122;19.932;2022-12-29T11:42:43;98135.49;;;8.50;62.15
58919;BME280;44704;50.122;19.932;2022-12-29T11:45:30;98135.24;;;8.54;61.85
58919;BME280;44704;50.122;19.932;2022-12-29T11:48:08;98133.73;;;8.59;61.84
58919;BME280;44704;50.122;19.932;2022-12-29T11:50:40;98127.96;;;8.70;61.78
58919;BME280;44704;50.122;19.932;2022-12-29T11:53:49;98119.90;;;8.83;62.00
58919;BME280;44704;50.122;19.932;2022-12-29T11:56:14;98119.42;;;9.00;61.79
58919;BME280;44704;50.122;19.932;2022-12-29T11:58:41;98122.96;;;9.13;61.50
58919;BME280;44704;50.122;19.932;2022-12-29T12:01:44;98119.98;;;9.21;61.06
58919;BME280;44704;50.122;19.932;2022-12-29T12:04:14;98117.23;;;9.29;61.02
58919;BME280;44704;50.122;19.932;2022-12-29T12:06:49;98119.33;;;9.35;60.69
58919;BME280;44704;50.122;19.932;2022-12-29T12:09:45;98112.66;;;9.39;60.46
58919;BME280;44704;50.122;19.932;2022-12-29T12:12:30;98115.73;;;9.41;60.41
58919;BME280;44704;50.122;19.932;2022-12-29T12:15:01;98114.39;;;9.42;60.20
58919;BME280;44704;50.122;19.932;2022-12-29T12:18:40;98119.17;;;9.41;60.61
58919;BME280;44704;50.122;19.932;2022-12-29T12:21:20;98118.73;;;9.38;60.92
58919;BME280;44704;50.122;19.932;2022-12-29T12:26:39;98115.23;;;9.30;61.26
58919;BME280;44704;50.122;19.932;2022-12-29T12:29:16;98116.71;;;9.27;61.33
58919;BME280;44704;50.122;19.932;2022-12-29T12:31:54;98111.97;;;9.24;61.50
58919;BME280;44704;50.122;19.932;2022-12-29T12:34:47;98110.52;;;9.22;61.53
58919;BME280;44704;50.122;19.932;2022-12-29T12:45:43;98108.35;;;9.28;61.27
58919;BME280;44704;50.122;19.932;2022-12-29T12:51:33;98096.70;;;9.34;60.86
58919;BME280;44704;50.122;19.932;2022-12-29T12:57:17;98096.08;;;9.39;60.55
58919;BME280;44704;50.122;19.932;2022-12-29T13:06:12;98097.98;;;9.46;60.00
58919;BME280;44704;50.122;19.932;2022-12-29T13:17:29;98105.18;;;9.53;59.36
58919;BME280;44704;50.122;19.932;2022-12-29T13:23:06;98113.35;;;9.54;59.49
58919;BME280;44704;50.122;19.932;2022-12-29T13:25:49;98121.52;;;9.55;59.87
58919;BME280;44704;50.122;19.932;2022-12-29T13:28:29;98124.45;;;9.55;59.89
58919;BME280;44704;50.122;19.932;2022-12-29T13:31:07;98122.52;;;9.53;60.07
58919;BME280;44704;50.122;19.932;2022-12-29T13:39:39;98123.79;;;9.55;60.27
58919;BME280;44704;50.122;19.932;2022-12-29T13:42:07;98128.69;;;9.48;60.44
58919;BME280;44704;50.122;19.932;2022-12-29T13:44:35;98130.49;;;9.43;60.39
58919;BME280;44704;50.122;19.932;2022-12-29T13:49:46;98124.43;;;9.31;60.42
58919;BME280;44704;50.122;19.932;2022-12-29T13:52:35;98125.86;;;9.26;60.27
58919;BME280;44704;50.122;19.932;2022-12-29T13:57:41;98119.60;;;9.13;60.43
58919;BME280;44704;50.122;19.932;2022-12-29T14:00:25;98123.75;;;9.08;60.74
58919;BME280;44704;50.122;19.932;2022-12-29T14:03:16;98123.09;;;9.02;60.78
58919;BME280;44704;50.122;19.932;2022-12-29T14:05:47;98123.52;;;8.96;61.11
58919;BME280;44704;50.122;19.932;2022-12-29T14:08:28;98124.09;;;8.88;61.45
58919;BME280;44704;50.122;19.932;2022-12-29T14:11:09;98123.36;;;8.82;61.52
58919;BME280;44704;50.122;19.932;2022-12-29T14:13:39;98126.17;;;8.75;61.75
58919;BME280;44704;50.122;19.932;2022-12-29T14:16:06;98129.17;;;8.70;61.90
58919;BME280;44704;50.122;19.932;2022-12-29T14:18:41;98128.05;;;8.63;62.09
58919;BME280;44704;50.122;19.932;2022-12-29T14:23:51;98137.10;;;8.51;62.61
58919;BME280;44704;50.122;19.932;2022-12-29T14:28:55;98138.27;;;8.42;63.09
58919;BME280;44704;50.122;19.932;2022-12-29T14:36:42;98130.02;;;8.24;63.68
58919;BME280;44704;50.122;19.932;2022-12-29T14:42:03;98140.02;;;8.08;63.98
58919;BME280;44704;50.122;19.932;2022-12-29T14:44:30;98135.46;;;8.00;64.42
58919;BME280;44704;50.122;19.932;2022-12-29T14:47:00;98135.66;;;7.93;64.60
58919;BME280;44704;50.122;19.932;2022-12-29T14:49:40;98143.07;;;7.87;64.63
58919;BME280;44704;50.122;19.932;2022-12-29T14:52:23;98145.38;;;7.81;64.73
58919;BME280;44704;50.122;19.932;2022-12-29T14:57:53;98147.74;;;7.69;65.15
58919;BME280;44704;50.122;19.932;2022-12-29T15:00:26;98147.98;;;7.63;65.13
58919;BME280;44704;50.122;19.932;2022-12-29T15:03:05;98151.95;;;7.57;65.18
58919;BME280;44704;50.122;19.932;2022-12-29T15:05:42;98149.19;;;7.53;65.26
58919;BME280;44704;50.122;19.932;2022-12-29T15:08:11;98148.05;;;7.48;65.49
58919;BME280;44704;50.122;19.932;2022-12-29T15:10:45;98150.44;;;7.44;65.62
58919;BME280;44704;50.122;19.932;2022-12-29T15:13:23;98143.80;;;7.40;65.63
58919;BME280;44704;50.122;19.932;2022-12-29T15:15:49;98149.60;;;7.36;65.92
58919;BME280;44704;50.122;19.932;2022-12-29T15:18:25;98148.70;;;7.32;66.09
58919;BME280;44704;50.122;19.932;2022-12-29T15:20:55;98152.39;;;7.28;66.30
58919;BME280;44704;50.122;19.932;2022-12-29T15:23:29;98147.05;;;7.24;66.37
58919;BME280;44704;50.122;19.932;2022-12-29T15:26:07;98153.61;;;7.20;66.63
58919;BME280;44704;50.122;19.932;2022-12-29T15:28:41;98151.52;;;7.14;66.62